Time;durP1;ratioP1;P1;durP2;ratioP2;P2;SDS_P1;SDS_P2;PMS_P1;PMS_P2;Temp;Humidity;BMP_temperature;BMP_pressure;BME280_temperature;BME280_humidity;BME280_pressure;Samples;Min_cycle;Max_cycle;Signal;HPM_P1;HPM_P2
2022/08/23 00:01:05;;;;;;;;;;;;;;;16.96;100.00;101496.94;5018672;28;19932;-82
2022/08/23 00:03:31;;;;;;;;;;;;;;;16.94;100.00;101496.19;4976738;28;1143059;-81
2022/08/23 00:05:56;;;;;;;;;;;;;;;16.92;100.00;101498.09;5016874;28;20026;-82
2022/08/23 00:08:24;;;;;;;;;;;;;;;16.91;100.00;101506.22;5010573;28;20002;-82
2022/08/23 00:10:50;;;;;;;;;;;;;;;16.89;100.00;101494.75;5019898;28;19921;-82
2022/08/23 00:13:16;;;;;;;;;;;;;;;16.86;100.00;101493.13;5015066;28;19928;-82
2022/08/23 00:15:41;;;;;;;;;;;;;;;16.84;100.00;101495.06;5017387;28;19921;-82
2022/08/23 00:18:07;;;;;;;;;;;;;;;16.82;100.00;101479.09;5004499;28;19948;-82
2022/08/23 00:20:32;;;;;;;;;;;;;;;16.82;100.00;101483.56;5000090;28;19948;-82
2022/08/23 00:22:58;;;;;;;;;;;;;;;16.81;100.00;101482.72;5011336;28;20548;-84
2022/08/23 00:25:23;;;;;;;;;;;;;;;16.82;100.00;101486.25;5022806;28;20709;-82
2022/08/23 00:27:49;;;;;;;;;;;;;;;16.80;100.00;101478.34;5000756;28;19955;-82
2022/08/23 00:30:15;;;;;;;;;;;;;;;16.80;100.00;101485.50;5004241;28;19967;-83
2022/08/23 00:32:40;;;;;;;;;;;;;;;16.80;100.00;101478.34;5020483;28;19942;-83
2022/08/23 00:35:06;;;;;;;;;;;;;;;16.80;100.00;101477.47;4980167;28;20028;-82
2022/08/23 00:37:32;;;;;;;;;;;;;;;16.79;100.00;101473.94;4997405;28;19975;-82
2022/08/23 00:40:01;;;;;;;;;;;;;;;16.78;100.00;101471.38;5015793;28;20015;-82
2022/08/23 00:48:09;;;;;;;;;;;;;;;16.72;100.00;101461.91;5006638;28;20003;-82
2022/08/23 00:50:38;;;;;;;;;;;;;;;16.72;100.00;101461.91;5020858;28;20047;-82
2022/08/23 00:53:11;;;;;;;;;;;;;;;16.72;100.00;101463.72;5016463;28;20371;-82
2022/08/23 00:55:37;;;;;;;;;;;;;;;16.69;100.00;101462.94;5018415;28;19924;-82
2022/08/23 00:58:03;;;;;;;;;;;;;;;16.69;100.00;101462.94;4998774;28;20430;-82
2022/08/23 01:00:28;;;;;;;;;;;;;;;16.66;100.00;101451.56;5016741;28;19955;-82
2022/08/23 01:02:57;;;;;;;;;;;;;;;16.65;100.00;101455.22;4993793;28;20303;-82
2022/08/23 01:05:24;;;;;;;;;;;;;;;16.63;100.00;101455.31;5011078;28;19925;-82
2022/08/23 01:07:53;;;;;;;;;;;;;;;16.62;100.00;101464.28;5015013;28;19983;-82
2022/08/23 01:10:23;;;;;;;;;;;;;;;16.61;100.00;101467.91;5015101;28;19928;-83
2022/08/23 01:12:51;;;;;;;;;;;;;;;16.59;100.00;101467.16;4984224;28;19964;-82
2022/08/23 01:15:25;;;;;;;;;;;;;;;16.57;100.00;101463.72;5008190;28;19996;-81
2022/08/23 01:17:53;;;;;;;;;;;;;;;16.54;100.00;101461.22;5006134;28;19921;-81
2022/08/23 01:20:21;;;;;;;;;;;;;;;16.52;100.00;101461.31;5003032;28;19921;-81
2022/08/23 01:22:59;;;;;;;;;;;;;;;16.51;100.00;101462.25;5004827;28;20433;-82
2022/08/23 01:25:26;;;;;;;;;;;;;;;16.52;100.00;101463.13;4995808;28;19929;-81
2022/08/23 01:27:51;;;;;;;;;;;;;;;16.49;100.00;101464.19;4996958;28;20321;-81
2022/08/23 01:30:18;;;;;;;;;;;;;;;16.48;100.00;101464.25;5016695;28;19928;-82
2022/08/23 01:32:45;;;;;;;;;;;;;;;16.44;100.00;101468.94;5018557;28;20371;-83
2022/08/23 01:35:11;;;;;;;;;;;;;;;16.41;100.00;101466.47;5010767;28;19932;-82
2022/08/23 01:37:37;;;;;;;;;;;;;;;16.39;100.00;101458.53;5000519;28;19932;-82
2022/08/23 01:40:03;;;;;;;;;;;;;;;16.39;100.00;101465.66;5004570;28;20948;-82
2022/08/23 01:42:28;;;;;;;;;;;;;;;16.37;100.00;101464.91;5018952;28;20022;-83
2022/08/23 01:44:54;;;;;;;;;;;;;;;16.35;100.00;101462.31;5015354;28;20011;-82
2022/08/23 01:47:19;;;;;;;;;;;;;;;16.34;100.00;101465.94;5005483;28;19957;-82
2022/08/23 01:49:44;;;;;;;;;;;;;;;16.32;100.00;101462.53;5008669;28;19956;-82
2022/08/23 01:52:10;;;;;;;;;;;;;;;16.30;100.00;101464.44;5016813;28;19921;-83
2022/08/23 01:54:35;;;;;;;;;;;;;;;16.29;100.00;101460.06;5002256;28;20016;-82
2022/08/23 01:57:01;;;;;;;;;;;;;;;16.27;100.00;101459.25;5027901;28;20003;-82
2022/08/23 01:59:26;;;;;;;;;;;;;;;16.27;100.00;101456.59;5014149;28;19928;-82
2022/08/23 02:01:52;;;;;;;;;;;;;;;16.28;100.00;101453.84;5002690;28;19925;-82
2022/08/23 02:04:18;;;;;;;;;;;;;;;16.29;100.00;101457.38;5015671;28;19943;-83
2022/08/23 02:06:43;;;;;;;;;;;;;;;16.27;100.00;101460.13;5022646;28;19921;-80
2022/08/23 02:09:08;;;;;;;;;;;;;;;16.28;100.00;101455.63;5005366;28;19920;-84
2022/08/23 02:11:40;;;;;;;;;;;;;;;16.29;100.00;101460.06;5007075;28;20011;-81
2022/08/23 02:14:07;;;;;;;;;;;;;;;16.31;100.00;101454.59;5015809;28;19921;-82
2022/08/23 02:16:35;;;;;;;;;;;;;;;16.35;100.00;101456.13;5023789;28;20722;-82
2022/08/23 02:19:01;;;;;;;;;;;;;;;16.37;100.00;101460.44;5024131;28;19925;-81
2022/08/23 02:21:30;;;;;;;;;;;;;;;16.41;100.00;101458.44;5016613;28;19920;-84
2022/08/23 02:23:56;;;;;;;;;;;;;;;16.43;100.00;101454.72;5022478;28;19967;-83
2022/08/23 02:26:22;;;;;;;;;;;;;;;16.43;100.00;101454.72;5020295;28;19936;-80
2022/08/23 02:28:49;;;;;;;;;;;;;;;16.44;100.00;101452.91;5020627;28;20353;-82
2022/08/23 02:31:14;;;;;;;;;;;;;;;16.45;100.00;101451.94;5021818;28;19925;-83
2022/08/23 02:33:40;;;;;;;;;;;;;;;16.47;100.00;101450.06;5010480;28;20895;-82
2022/08/23 02:36:05;;;;;;;;;;;;;;;16.49;100.00;101452.63;5021497;28;19932;-82
2022/08/23 02:38:31;;;;;;;;;;;;;;;16.50;100.00;101451.69;5000513;28;19925;-82
2022/08/23 02:40:56;;;;;;;;;;;;;;;16.50;100.00;101452.53;5018371;28;20048;-84
2022/08/23 02:43:21;;;;;;;;;;;;;;;16.52;100.00;101453.28;5020582;28;20443;-82
2022/08/23 02:45:47;;;;;;;;;;;;;;;16.53;100.00;101448.81;5016976;28;19968;-82
2022/08/23 02:48:12;;;;;;;;;;;;;;;16.52;100.00;101452.44;5017523;28;19948;-83
2022/08/23 02:50:38;;;;;;;;;;;;;;;16.51;100.00;101450.72;5020880;28;19924;-82
2022/08/23 02:53:03;;;;;;;;;;;;;;;16.50;100.00;101455.19;4995992;28;21158;-82
2022/08/23 02:55:28;;;;;;;;;;;;;;;16.50;100.00;101454.34;5017554;28;20012;-81
2022/08/23 02:57:54;;;;;;;;;;;;;;;16.49;100.00;101448.13;5020804;28;19924;-83
2022/08/23 03:00:22;;;;;;;;;;;;;;;16.49;100.00;101452.63;5001985;28;20042;-84
2022/08/23 03:02:48;;;;;;;;;;;;;;;16.48;100.00;101451.78;5020349;28;19946;-84
2022/08/23 03:05:13;;;;;;;;;;;;;;;16.48;100.00;101456.25;5002221;28;19929;-84
2022/08/23 03:07:39;;;;;;;;;;;;;;;16.46;100.00;101453.69;5019511;28;19967;-83
2022/08/23 03:10:05;;;;;;;;;;;;;;;16.45;100.00;101443.94;5033562;28;21076;-85
2022/08/23 03:12:31;;;;;;;;;;;;;;;16.46;100.00;101458.16;5033014;28;19956;-83
2022/08/23 03:14:56;;;;;;;;;;;;;;;16.42;100.00;101442.31;5015668;28;19925;-83
2022/08/23 03:17:25;;;;;;;;;;;;;;;16.43;100.00;101445.84;5033390;28;19921;-83
2022/08/23 03:19:53;;;;;;;;;;;;;;;16.41;100.00;101448.59;5019931;28;19925;-83
2022/08/23 03:22:19;;;;;;;;;;;;;;;16.36;100.00;101448.03;5034504;28;19925;-81
2022/08/23 03:24:45;;;;;;;;;;;;;;;16.33;100.00;101445.53;5017175;28;19929;-82
2022/08/23 03:27:11;;;;;;;;;;;;;;;16.31;100.00;101449.25;5020290;28;19921;-82
2022/08/23 03:29:36;;;;;;;;;;;;;;;16.28;100.00;101452.97;5020047;28;19928;-82
2022/08/23 03:32:02;;;;;;;;;;;;;;;16.26;100.00;101452.19;5020298;28;19940;-82
2022/08/23 03:34:28;;;;;;;;;;;;;;;16.28;100.00;101447.63;5020532;28;19921;-82
2022/08/23 03:36:54;;;;;;;;;;;;;;;16.28;100.00;101450.28;5018812;28;20607;-82
2022/08/23 03:39:20;;;;;;;;;;;;;;;16.28;100.00;101458.31;5020173;28;19932;-82
2022/08/23 03:41:45;;;;;;;;;;;;;;;16.27;100.00;101451.25;5018346;28;19921;-82
2022/08/23 03:44:10;;;;;;;;;;;;;;;16.27;100.00;101448.56;5017785;28;19921;-83
2022/08/23 03:46:36;;;;;;;;;;;;;;;16.27;100.00;101456.59;5019464;28;19921;-82
2022/08/23 03:49:02;;;;;;;;;;;;;;;16.26;100.00;101458.41;5018981;28;20267;-82
2022/08/23 03:51:28;;;;;;;;;;;;;;;16.25;100.00;101459.34;5020366;28;20355;-82
2022/08/23 03:53:54;;;;;;;;;;;;;;;16.24;100.00;101451.44;5019749;28;19921;-82
2022/08/23 03:56:45;;;;;;;;;;;;;;;16.22;100.00;101453.31;5035285;28;19921;-82
2022/08/23 03:59:11;;;;;;;;;;;;;;;16.20;100.00;101453.44;5018399;28;20012;-82
2022/08/23 04:01:36;;;;;;;;;;;;;;;16.19;100.00;101450.84;5020452;28;19925;-82
2022/08/23 04:04:02;;;;;;;;;;;;;;;16.19;100.00;101453.53;5039082;28;19924;-82
2022/08/23 04:06:28;;;;;;;;;;;;;;;16.18;100.00;101454.47;5019489;28;19916;-82
2022/08/23 04:08:53;;;;;;;;;;;;;;;16.16;100.00;101451.88;5038835;28;19975;-82
2022/08/23 04:11:19;;;;;;;;;;;;;;;16.14;100.00;101451.97;5021301;28;19959;-82
2022/08/23 04:13:45;;;;;;;;;;;;;;;16.15;100.00;101455.53;5028715;28;19921;-82
2022/08/23 04:16:10;;;;;;;;;;;;;;;16.13;100.00;101455.59;5034828;28;21245;-83
2022/08/23 04:18:36;;;;;;;;;;;;;;;16.13;100.00;101466.28;5025277;28;21386;-81
2022/08/23 04:21:02;;;;;;;;;;;;;;;16.12;100.00;101471.75;5032687;28;19960;-83
2022/08/23 04:23:28;;;;;;;;;;;;;;;16.12;100.00;101477.94;5003507;28;19929;-82
2022/08/23 04:25:53;;;;;;;;;;;;;;;16.14;100.00;101480.50;5033706;28;19932;-82
2022/08/23 04:28:19;;;;;;;;;;;;;;;16.11;100.00;101478.88;5038321;28;20363;-82
2022/08/23 04:30:44;;;;;;;;;;;;;;;16.09;100.00;101479.91;5036888;28;19928;-82
2022/08/23 04:33:10;;;;;;;;;;;;;;;16.05;100.00;101471.22;5034771;28;19970;-82
2022/08/23 04:35:36;;;;;;;;;;;;;;;16.04;100.00;101471.31;5027029;28;19933;-82
2022/08/23 04:38:01;;;;;;;;;;;;;;;16.03;100.00;101475.81;5026219;28;19928;-82
2022/08/23 04:43:11;;;;;;;;;;;;;;;16.00;100.00;101468.84;5034345;28;20299;-81
2022/08/23 04:45:40;;;;;;;;;;;;;;;15.98;100.00;101476.09;5029364;28;19932;-81
2022/08/23 04:48:06;;;;;;;;;;;;;;;15.99;100.00;101479.59;5027436;28;20632;-81
2022/08/23 04:50:32;;;;;;;;;;;;;;;15.97;100.00;101473.50;5031885;28;20492;-81
2022/08/23 04:52:57;;;;;;;;;;;;;;;15.97;100.00;101474.34;5041190;28;20050;-82
2022/08/23 04:55:23;;;;;;;;;;;;;;;15.98;100.00;101476.09;5041054;28;19929;-82
2022/08/23 04:57:48;;;;;;;;;;;;;;;15.96;100.00;101488.63;5034991;28;19931;-82
2022/08/23 05:00:15;;;;;;;;;;;;;;;15.97;100.00;101482.34;5038400;28;20276;-81
2022/08/23 05:02:40;;;;;;;;;;;;;;;15.99;100.00;101479.59;5024145;28;19929;-81
2022/08/23 05:05:06;;;;;;;;;;;;;;;15.98;100.00;101485.88;5005516;28;19921;-82
2022/08/23 05:07:32;;;;;;;;;;;;;;;15.96;100.00;101479.78;5025162;28;20398;-81
2022/08/23 05:09:58;;;;;;;;;;;;;;;15.96;100.00;101485.97;5023979;28;20386;-81
2022/08/23 05:12:23;;;;;;;;;;;;;;;16.00;100.00;101494.66;4989526;28;19966;-82
2022/08/23 05:14:48;;;;;;;;;;;;;;;16.05;100.00;101491.72;5025262;28;19935;-82
2022/08/23 05:17:14;;;;;;;;;;;;;;;16.06;100.00;101488.97;5023979;28;19925;-82
2022/08/23 05:19:39;;;;;;;;;;;;;;;16.09;100.00;101490.59;5006476;28;20536;-81
2022/08/23 05:22:05;;;;;;;;;;;;;;;16.10;100.00;101493.19;5024561;28;19990;-81
2022/08/23 05:24:30;;;;;;;;;;;;;;;16.14;100.00;101486.69;5025019;28;20528;-81
2022/08/23 05:26:56;;;;;;;;;;;;;;;16.17;100.00;101491.00;5023984;28;20679;-81
2022/08/23 05:29:21;;;;;;;;;;;;;;;16.22;100.00;101496.06;5024820;28;20310;-82
2022/08/23 05:31:47;;;;;;;;;;;;;;;16.25;100.00;101490.56;5022527;28;19952;-82
2022/08/23 05:34:15;;;;;;;;;;;;;;;16.26;100.00;101494.94;5024029;28;20047;-82
2022/08/23 05:36:41;;;;;;;;;;;;;;;16.27;100.00;101502.00;5006449;28;19999;-82
2022/08/23 05:39:07;;;;;;;;;;;;;;;16.28;100.00;101501.06;5022216;28;19925;-83
2022/08/23 05:41:32;;;;;;;;;;;;;;;16.31;100.00;101492.00;4985458;28;20075;-83
2022/08/23 05:43:58;;;;;;;;;;;;;;;16.34;100.00;101497.16;5000628;28;19921;-83
2022/08/23 05:46:23;;;;;;;;;;;;;;;16.35;100.00;101498.88;5008232;28;19956;-81
2022/08/23 05:48:49;;;;;;;;;;;;;;;16.37;100.00;101505.00;5020130;28;19921;-82
2022/08/23 05:51:20;;;;;;;;;;;;;;;16.40;100.00;101516.34;5023575;28;19920;-82
2022/08/23 05:53:46;;;;;;;;;;;;;;;16.46;100.00;101516.94;5023026;28;19967;-82
2022/08/23 05:56:16;;;;;;;;;;;;;;;16.51;100.00;101510.38;5020344;28;19968;-82
2022/08/23 05:58:42;;;;;;;;;;;;;;;16.58;100.00;101508.19;5024819;28;19925;-87
2022/08/23 06:01:08;;;;;;;;;;;;;;;16.64;100.00;101505.16;5021542;28;19998;-86
2022/08/23 06:03:34;;;;;;;;;;;;;;;16.70;100.00;101514.59;5003074;28;20019;-86
2022/08/23 06:06:00;;;;;;;;;;;;;;;16.77;100.00;101523.13;5025723;28;20199;-85
2022/08/23 06:08:25;;;;;;;;;;;;;;;16.84;100.00;101527.97;5004677;28;19928;-86
2022/08/23 06:11:05;;;;;;;;;;;;;;;16.92;100.00;101530.19;5024288;28;20335;-86
2022/08/23 06:13:30;;;;;;;;;;;;;;;16.97;100.00;101536.13;5024374;28;19986;-87
2022/08/23 06:15:56;;;;;;;;;;;;;;;17.04;100.00;101527.72;5024005;28;20323;-87
2022/08/23 06:18:21;;;;;;;;;;;;;;;17.09;100.00;101521.16;4990729;28;20023;-88
2022/08/23 06:20:47;;;;;;;;;;;;;;;17.20;100.00;101515.13;5022451;28;20105;-87
2022/08/23 06:23:12;;;;;;;;;;;;;;;17.40;100.00;101517.50;5022272;28;19925;-87
2022/08/23 06:25:38;;;;;;;;;;;;;;;17.60;100.00;101518.91;4989476;28;19924;-85
2022/08/23 06:28:04;;;;;;;;;;;;;;;17.78;100.00;101519.50;5025651;28;19921;-85
2022/08/23 06:30:29;;;;;;;;;;;;;;;17.94;100.00;101529.22;4995562;28;19952;-85
2022/08/23 06:32:54;;;;;;;;;;;;;;;18.05;100.00;101535.59;5001360;28;19921;-86
2022/08/23 06:35:20;;;;;;;;;;;;;;;18.14;100.00;101527.94;5023475;28;19921;-84
2022/08/23 06:37:46;;;;;;;;;;;;;;;18.21;100.00;101517.66;5018656;28;19928;-85
2022/08/23 06:40:11;;;;;;;;;;;;;;;18.30;100.00;101525.94;5021002;28;19955;-81
2022/08/23 06:42:36;;;;;;;;;;;;;;;18.48;100.00;101517.59;5024844;28;19925;-81
2022/08/23 06:45:03;;;;;;;;;;;;;;;18.62;100.00;101523.84;5021041;28;19928;-82
2022/08/23 06:47:30;;;;;;;;;;;;;;;18.70;100.00;101526.84;5020886;28;19924;-81
2022/08/23 06:49:56;;;;;;;;;;;;;;;18.80;100.00;101535.97;5024142;28;19925;-82
2022/08/23 06:52:22;;;;;;;;;;;;;;;18.97;100.00;101532.09;5022519;28;19920;-82
2022/08/23 06:54:47;;;;;;;;;;;;;;;19.06;100.00;101527.94;5020936;28;20380;-89
2022/08/23 06:57:13;;;;;;;;;;;;;;;19.14;100.00;101530.94;5003789;28;19979;-86
2022/08/23 06:59:38;;;;;;;;;;;;;;;19.16;100.00;101529.97;5024770;28;20000;-87
2022/08/23 07:02:07;;;;;;;;;;;;;;;19.16;100.00;101522.78;5021909;28;19921;-88
2022/08/23 07:04:35;;;;;;;;;;;;;;;19.20;100.00;101526.09;5022380;28;19927;-89
2022/08/23 07:07:00;;;;;;;;;;;;;;;19.24;100.00;101527.59;5002919;28;19921;-89
2022/08/23 07:09:26;;;;;;;;;;;;;;;19.33;100.00;101531.47;5023380;28;19921;-90
2022/08/23 07:11:52;;;;;;;;;;;;;;;19.41;100.00;101529.91;5020742;28;19925;-89
2022/08/23 07:14:18;;;;;;;;;;;;;;;19.52;100.00;101530.97;5022723;28;19927;-89
2022/08/23 07:16:46;;;;;;;;;;;;;;;19.60;100.00;101538.47;5019852;28;20694;-89
2022/08/23 07:19:14;;;;;;;;;;;;;;;19.59;100.00;101542.97;5018771;28;20292;-91
2022/08/23 07:21:40;;;;;;;;;;;;;;;19.67;100.00;101534.38;5022723;28;20717;-90
2022/08/23 07:24:07;;;;;;;;;;;;;;;19.81;100.00;101536.91;4987443;28;19924;-91
2022/08/23 07:26:32;;;;;;;;;;;;;;;19.95;100.00;101533.19;5024978;28;19940;-87
2022/08/23 07:28:58;;;;;;;;;;;;;;;20.07;100.00;101535.94;5020739;28;20414;-86
2022/08/23 07:31:29;;;;;;;;;;;;;;;20.24;100.00;101531.13;5022739;28;19979;-84
2022/08/23 07:33:55;;;;;;;;;;;;;;;20.37;100.00;101537.28;5018119;28;19925;-84
2022/08/23 07:36:21;;;;;;;;;;;;;;;20.48;100.00;101531.94;5021474;28;19947;-86
2022/08/23 07:38:46;;;;;;;;;;;;;;;20.61;100.00;101539.91;5023494;28;20291;-77
2022/08/23 07:41:12;;;;;;;;;;;;;;;20.75;100.00;101533.47;5005949;28;19925;-82
2022/08/23 07:43:38;;;;;;;;;;;;;;;20.91;100.00;101537.66;5022945;28;20523;-81
2022/08/23 07:46:04;;;;;;;;;;;;;;;21.09;100.00;101547.97;5022624;28;19920;-83
2022/08/23 07:48:29;;;;;;;;;;;;;;;21.20;96.76;101547.97;5002899;28;19936;-83
2022/08/23 07:50:56;;;;;;;;;;;;;;;21.33;97.49;101549.66;5022104;28;20832;-83
2022/08/23 07:53:22;;;;;;;;;;;;;;;21.44;96.51;101552.34;5021315;28;19952;-83
2022/08/23 07:55:47;;;;;;;;;;;;;;;21.59;96.22;101555.66;5014647;28;20023;-83
2022/08/23 07:58:13;;;;;;;;;;;;;;;21.77;95.88;101550.63;4998919;28;20336;-83
2022/08/23 08:00:38;;;;;;;;;;;;;;;21.95;94.88;101552.78;5018644;28;20020;-83
2022/08/23 08:03:04;;;;;;;;;;;;;;;22.09;93.48;101552.47;5034135;28;20011;-84
2022/08/23 08:05:32;;;;;;;;;;;;;;;22.21;92.52;101555.97;5040881;28;19920;-84
2022/08/23 08:07:58;;;;;;;;;;;;;;;22.38;92.20;101562.63;5040944;28;20147;-84
2022/08/23 08:10:23;;;;;;;;;;;;;;;22.54;91.77;101561.34;5022028;28;20435;-84
2022/08/23 08:12:49;;;;;;;;;;;;;;;22.68;91.85;101567.41;5037450;28;20015;-85
2022/08/23 08:15:15;;;;;;;;;;;;;;;22.83;90.60;101563.41;5041939;28;20016;-85
2022/08/23 08:17:40;;;;;;;;;;;;;;;23.03;90.84;101558.09;5041511;28;19920;-86
2022/08/23 08:20:06;;;;;;;;;;;;;;;23.23;87.68;101561.75;5038124;28;21533;-84
2022/08/23 08:22:32;;;;;;;;;;;;;;;23.38;88.30;101564.09;5041587;28;19944;-83
2022/08/23 08:24:57;;;;;;;;;;;;;;;23.50;86.39;101568.41;5045484;28;19925;-84
2022/08/23 08:27:23;;;;;;;;;;;;;;;23.64;85.37;101569.03;5045979;28;20494;-84
2022/08/23 08:29:48;;;;;;;;;;;;;;;23.71;84.62;101571.00;5045931;28;20405;-84
2022/08/23 08:32:14;;;;;;;;;;;;;;;23.78;86.16;101570.44;5045935;28;20841;-85
2022/08/23 08:34:40;;;;;;;;;;;;;;;23.82;85.36;101571.91;5046025;28;20413;-84
2022/08/23 08:37:08;;;;;;;;;;;;;;;23.87;84.94;101570.47;5044612;28;20069;-84
2022/08/23 08:39:33;;;;;;;;;;;;;;;23.96;85.05;101570.66;5045424;28;19977;-83
2022/08/23 08:42:03;;;;;;;;;;;;;;;23.98;83.73;101563.25;5045274;28;19948;-83
2022/08/23 08:44:39;;;;;;;;;;;;;;;23.98;82.82;101569.47;5042081;28;19928;-84
2022/08/23 08:47:06;;;;;;;;;;;;;;;23.99;83.15;101570.34;5045700;28;19986;-85
2022/08/23 08:49:44;;;;;;;;;;;;;;;23.94;82.75;101576.19;5025028;28;19991;-83
2022/08/23 08:52:28;;;;;;;;;;;;;;;23.96;83.18;101574.19;5039833;28;19921;-84
2022/08/23 08:55:02;;;;;;;;;;;;;;;23.95;82.80;101577.03;5045046;28;19931;-84
2022/08/23 08:57:27;;;;;;;;;;;;;;;23.93;80.56;101582.59;5045452;28;19925;-84
2022/08/23 09:00:13;;;;;;;;;;;;;;;23.91;81.73;101584.56;5044692;28;19944;-84
2022/08/23 09:02:39;;;;;;;;;;;;;;;23.88;81.61;101591.09;5036367;28;19925;-83
2022/08/23 09:05:07;;;;;;;;;;;;;;;23.89;82.14;101589.25;5022345;28;19925;-87
2022/08/23 09:07:43;;;;;;;;;;;;;;;23.85;81.48;101588.69;5018695;28;20015;-79
2022/08/23 09:10:08;;;;;;;;;;;;;;;23.82;81.62;101594.38;5020730;28;19971;-79
2022/08/23 09:12:40;;;;;;;;;;;;;;;24.02;82.55;101599.81;5021198;28;19971;-78
2022/08/23 09:15:13;;;;;;;;;;;;;;;24.28;81.25;101604.69;5023831;28;19931;-79
2022/08/23 09:17:48;;;;;;;;;;;;;;;24.48;81.36;101608.28;5024901;28;20375;-79
2022/08/23 09:20:14;;;;;;;;;;;;;;;24.65;80.68;101603.13;5024676;28;19924;-78
2022/08/23 09:22:41;;;;;;;;;;;;;;;24.70;78.50;101600.84;5024968;28;19921;-79
2022/08/23 09:25:07;;;;;;;;;;;;;;;24.81;77.83;101587.19;5007272;28;19924;-79
2022/08/23 09:27:32;;;;;;;;;;;;;;;24.94;77.39;101581.44;5002904;28;19928;-79
2022/08/23 09:29:59;;;;;;;;;;;;;;;25.05;77.06;101574.16;5024784;28;20359;-79
2022/08/23 09:32:27;;;;;;;;;;;;;;;25.22;74.80;101575.22;5007145;28;20114;-79
2022/08/23 09:34:52;;;;;;;;;;;;;;;25.36;75.46;101577.44;5005105;28;19929;-79
2022/08/23 09:37:19;;;;;;;;;;;;;;;25.48;73.86;101575.38;5004352;28;19990;-79
2022/08/23 09:39:49;;;;;;;;;;;;;;;25.54;73.66;101568.50;5004396;28;19927;-79
2022/08/23 09:42:30;;;;;;;;;;;;;;;25.64;72.48;101573.88;5007022;28;19929;-78
2022/08/23 09:44:55;;;;;;;;;;;;;;;25.84;71.94;101566.50;5015120;28;19925;-85
2022/08/23 09:47:24;;;;;;;;;;;;;;;25.97;71.50;101571.53;4998933;28;19963;-84
2022/08/23 09:49:51;;;;;;;;;;;;;;;26.16;71.67;101569.66;5020587;28;19924;-83
2022/08/23 09:52:33;;;;;;;;;;;;;;;26.22;71.78;101565.50;5022421;28;19931;-84
2022/08/23 09:54:59;;;;;;;;;;;;;;;26.27;69.38;101574.91;5023815;28;21610;-82
2022/08/23 09:57:26;;;;;;;;;;;;;;;26.33;70.20;101573.41;5016137;28;19925;-82
2022/08/23 09:59:55;;;;;;;;;;;;;;;26.39;68.68;101580.94;5017947;28;19951;-82
2022/08/23 10:02:20;;;;;;;;;;;;;;;26.44;69.21;101573.19;5012985;28;19949;-81
2022/08/23 10:04:54;;;;;;;;;;;;;;;26.51;69.80;101576.09;5018977;28;19928;-81
2022/08/23 10:07:20;;;;;;;;;;;;;;;26.48;67.72;101570.13;5016099;28;19929;-81
2022/08/23 10:09:45;;;;;;;;;;;;;;;26.40;67.82;101565.47;5019694;28;20461;-81
2022/08/23 10:12:10;;;;;;;;;;;;;;;26.38;67.42;101564.78;5000082;28;19925;-81
2022/08/23 10:14:36;;;;;;;;;;;;;;;26.41;66.79;101568.03;5018303;28;19932;-81
2022/08/23 10:17:10;;;;;;;;;;;;;;;26.37;65.38;101565.81;5016274;28;19925;-81
2022/08/23 10:19:39;;;;;;;;;;;;;;;26.31;66.12;101559.16;5018522;28;19932;-82
2022/08/23 10:22:16;;;;;;;;;;;;;;;26.24;67.63;101564.34;5016735;28;20280;-82
2022/08/23 10:24:41;;;;;;;;;;;;;;;26.38;65.64;101564.78;5022960;28;19917;-82
2022/08/23 10:30:03;;;;;;;;;;;;;;;26.32;66.42;101562.72;5017278;28;19929;-80
2022/08/23 10:32:31;;;;;;;;;;;;;;;26.26;64.46;101566.91;5017818;28;20320;-82
2022/08/23 10:35:16;;;;;;;;;;;;;;;26.25;66.10;101566.03;5024252;28;19920;-81
2022/08/23 10:37:49;;;;;;;;;;;;;;;26.19;63.96;101561.22;5023271;28;19986;-81
2022/08/23 10:40:17;;;;;;;;;;;;;;;26.10;66.44;101554.84;5020204;28;19986;-83
2022/08/23 10:42:43;;;;;;;;;;;;;;;26.07;66.34;101563.31;5012328;28;20383;-82
2022/08/23 10:45:08;;;;;;;;;;;;;;;26.03;66.30;101564.63;5009384;28;19936;-83
2022/08/23 10:47:38;;;;;;;;;;;;;;;26.04;65.59;101555.50;5008504;28;20011;-82
2022/08/23 10:50:04;;;;;;;;;;;;;;;25.97;64.93;101554.41;5008914;28;19959;-82
2022/08/23 10:52:37;;;;;;;;;;;;;;;25.96;65.97;101553.56;5017963;28;19921;-82
2022/08/23 10:55:15;;;;;;;;;;;;;;;25.98;66.36;101556.13;5004517;28;19924;-82
2022/08/23 10:57:41;;;;;;;;;;;;;;;25.98;65.63;101558.81;5019168;28;19944;-82
2022/08/23 11:00:08;;;;;;;;;;;;;;;25.97;63.39;101562.56;5023008;28;19932;-81
2022/08/23 11:02:41;;;;;;;;;;;;;;;25.93;65.38;101556.56;5025401;28;19974;-82
2022/08/23 11:05:18;;;;;;;;;;;;;;;25.88;66.79;101557.03;5005057;28;20407;-81
2022/08/23 11:07:53;;;;;;;;;;;;;;;25.89;64.68;101553.31;5039996;28;19931;-82
2022/08/23 11:10:25;;;;;;;;;;;;;;;25.94;64.65;101565.56;5043266;28;19947;-81
2022/08/23 11:13:05;;;;;;;;;;;;;;;25.99;65.87;101561.38;5042617;28;19967;-81
2022/08/23 11:15:42;;;;;;;;;;;;;;;26.06;65.25;101564.31;5039543;28;19931;-81
2022/08/23 11:18:31;;;;;;;;;;;;;;;26.04;66.75;101564.47;5038478;28;19924;-83
2022/08/23 11:20:59;;;;;;;;;;;;;;;26.05;66.73;101559.91;5025258;28;19978;-82
2022/08/23 11:23:37;;;;;;;;;;;;;;;26.05;65.67;101554.50;5038001;28;20017;-76
2022/08/23 11:26:03;;;;;;;;;;;;;;;26.08;63.59;101559.59;5042343;28;20442;-77
2022/08/23 11:28:42;;;;;;;;;;;;;;;26.09;64.94;101569.44;5024349;28;19930;-76
2022/08/23 11:31:08;;;;;;;;;;;;;;;26.15;66.13;101567.97;5042352;28;20188;-76
2022/08/23 11:33:35;;;;;;;;;;;;;;;26.22;67.29;101566.38;5042245;28;19928;-76
2022/08/23 11:36:07;;;;;;;;;;;;;;;26.23;64.51;101567.19;5041773;28;19930;-76
2022/08/23 11:38:47;;;;;;;;;;;;;;;26.28;66.42;101576.59;5042312;28;19924;-75
2022/08/23 11:41:20;;;;;;;;;;;;;;;26.28;65.00;101564.88;5042349;28;20011;-75
2022/08/23 11:43:48;;;;;;;;;;;;;;;26.31;63.67;101570.00;5038306;28;20023;-75
2022/08/23 11:46:25;;;;;;;;;;;;;;;26.39;64.76;101567.34;5040271;28;20007;-75
2022/08/23 11:48:57;;;;;;;;;;;;;;;26.43;63.26;101568.72;5042328;28;19963;-76
2022/08/23 11:51:22;;;;;;;;;;;;;;;26.42;65.13;101574.34;5042487;28;20008;-76
2022/08/23 11:53:48;;;;;;;;;;;;;;;26.38;65.62;101572.94;5042412;28;19920;-75
2022/08/23 11:56:24;;;;;;;;;;;;;;;26.43;65.94;101571.44;5041674;28;19924;-75
2022/08/23 11:58:55;;;;;;;;;;;;;;;26.59;63.99;101569.88;5021394;28;20470;-75
2022/08/23 12:01:27;;;;;;;;;;;;;;;26.62;65.07;101569.56;5038283;28;20015;-76
2022/08/23 12:03:54;;;;;;;;;;;;;;;26.56;64.06;101571.06;5019296;28;19952;-76
2022/08/23 12:06:26;;;;;;;;;;;;;;;26.52;64.71;101571.53;5022166;28;19921;-77
2022/08/23 12:09:03;;;;;;;;;;;;;;;26.52;62.60;101574.25;5021894;28;19921;-76
2022/08/23 12:11:47;;;;;;;;;;;;;;;26.60;64.25;101576.16;5020244;28;20011;-76
2022/08/23 12:14:31;;;;;;;;;;;;;;;26.65;60.05;101576.53;5021384;28;19925;-77
2022/08/23 12:16:57;;;;;;;;;;;;;;;26.68;61.32;101581.63;5022239;28;19925;-76
2022/08/23 12:19:33;;;;;;;;;;;;;;;26.70;62.38;101579.63;5021426;28;19956;-76
2022/08/23 12:22:03;;;;;;;;;;;;;;;26.80;61.74;101576.81;5022224;28;20022;-77
2022/08/23 12:24:31;;;;;;;;;;;;;;;26.92;61.81;101577.41;5018717;28;19927;-76
2022/08/23 12:27:06;;;;;;;;;;;;;;;27.00;62.13;101579.34;5018959;28;19925;-77
2022/08/23 12:29:50;;;;;;;;;;;;;;;27.00;61.85;101568.47;5021378;28;19921;-77
2022/08/23 12:32:21;;;;;;;;;;;;;;;26.96;60.46;101570.66;5022182;28;19921;-76
2022/08/23 12:34:52;;;;;;;;;;;;;;;26.92;61.30;101575.56;5021451;28;20025;-77
2022/08/23 12:37:28;;;;;;;;;;;;;;;26.91;60.62;101576.56;5018035;28;19921;-76
2022/08/23 12:39:58;;;;;;;;;;;;;;;26.87;60.15;101571.59;5018692;28;19925;-76
2022/08/23 12:42:42;;;;;;;;;;;;;;;26.86;61.85;101581.63;5021634;28;19928;-76
2022/08/23 12:45:13;;;;;;;;;;;;;;;26.85;59.44;101578.03;5020974;28;19921;-76